Time;durP1;ratioP1;P1;durP2;ratioP2;P2;SDS_P1;SDS_P2;PMS_P1;PMS_P2;Temp;Humidity;BMP_temperature;BMP_pressure;BME280_temperature;BME280_humidity;BME280_pressure;Samples;Min_cycle;Max_cycle;Signal;HPM_P1;HPM_P2
2022/05/17 00:01:03;;;;;;;0.00;0.00;;;;;;;;;;5078451;28;20511;-62
2022/05/17 00:03:29;;;;;;;0.00;0.00;;;;;;;;;;5076717;28;20032;-61
2022/05/17 00:05:54;;;;;;;0.00;0.00;;;;;;;;;;5077687;28;20054;-62
2022/05/17 00:08:19;;;;;;;0.00;0.00;;;;;;;;;;5080247;28;20043;-61
2022/05/17 00:10:45;;;;;;;0.00;0.00;;;;;;;;;;5075729;28;20416;-61
2022/05/17 00:13:11;;;;;;;0.00;0.00;;;;;;;;;;5080357;28;20431;-63
2022/05/17 00:15:39;;;;;;;0.00;0.00;;;;;;;;;;5075023;28;20025;-62
2022/05/17 00:18:04;;;;;;;0.00;0.00;;;;;;;;;;5083531;28;20016;-62
2022/05/17 00:20:30;;;;;;;0.00;0.00;;;;;;;;;;5074028;28;20383;-62
2022/05/17 00:22:55;;;;;;;0.00;0.00;;;;;;;;;;5074698;28;20067;-63
2022/05/17 00:25:21;;;;;;;0.00;0.00;;;;;;;;;;5076178;28;20082;-61
2022/05/17 00:27:46;;;;;;;0.00;0.00;;;;;;;;;;5076752;28;20400;-62
2022/05/17 00:30:12;;;;;;;0.00;0.00;;;;;;;;;;5074006;28;20017;-62
2022/05/17 00:32:37;;;;;;;0.00;0.00;;;;;;;;;;5079764;28;20039;-61
2022/05/17 00:35:03;;;;;;;0.00;0.00;;;;;;;;;;5073380;28;20449;-61
2022/05/17 00:37:28;;;;;;;0.00;0.00;;;;;;;;;;5074545;28;20041;-61
2022/05/17 00:39:53;;;;;;;0.00;0.00;;;;;;;;;;5075865;28;20025;-62
2022/05/17 00:42:19;;;;;;;0.00;0.00;;;;;;;;;;5075705;28;20465;-63
2022/05/17 00:44:44;;;;;;;0.00;0.00;;;;;;;;;;5074023;28;20166;-61
2022/05/17 00:47:09;;;;;;;0.10;0.10;;;;;;;;;;5073081;28;20029;-61
2022/05/17 00:49:39;;;;;;;0.63;0.63;;;;;;;;;;5076292;28;20016;-63
2022/05/17 00:52:08;;;;;;;0.00;0.00;;;;;;;;;;5076410;28;20277;-62
2022/05/17 00:54:34;;;;;;;0.00;0.00;;;;;;;;;;5080018;28;20032;-63
2022/05/17 00:57:04;;;;;;;0.00;0.00;;;;;;;;;;5077037;28;20377;-62
2022/05/17 00:59:30;;;;;;;0.00;0.00;;;;;;;;;;5077850;28;20032;-63
2022/05/17 01:01:56;;;;;;;0.00;0.00;;;;;;;;;;5070010;28;20025;-62
2022/05/17 01:04:22;;;;;;;0.00;0.00;;;;;;;;;;5075012;28;20139;-63
2022/05/17 01:06:51;;;;;;;0.00;0.00;;;;;;;;;;5072786;28;20048;-62
2022/05/17 01:09:17;;;;;;;0.00;0.00;;;;;;;;;;5077657;28;20043;-61
2022/05/17 01:11:42;;;;;;;0.00;0.00;;;;;;;;;;5082951;28;20537;-62
2022/05/17 01:16:52;;;;;;;0.00;0.00;;;;;;;;;;5078460;28;20389;-61
2022/05/17 01:19:17;;;;;;;0.00;0.00;;;;;;;;;;5077334;28;20016;-62
2022/05/17 01:21:42;;;;;;;0.00;0.00;;;;;;;;;;5080343;28;20022;-61
2022/05/17 01:24:08;;;;;;;0.00;0.00;;;;;;;;;;5079429;28;20042;-62
2022/05/17 01:26:36;;;;;;;0.00;0.00;;;;;;;;;;5077099;28;20424;-62
2022/05/17 01:29:02;;;;;;;0.00;0.00;;;;;;;;;;5078287;28;20372;-60
2022/05/17 01:31:28;;;;;;;0.00;0.00;;;;;;;;;;5071807;28;20032;-61
2022/05/17 01:33:53;;;;;;;0.00;0.00;;;;;;;;;;5067643;28;20372;-62
2022/05/17 01:36:22;;;;;;;0.00;0.00;;;;;;;;;;5069054;28;20031;-60
2022/05/17 01:38:50;;;;;;;0.00;0.00;;;;;;;;;;5067833;28;20529;-61
2022/05/17 01:41:16;;;;;;;0.25;0.25;;;;;;;;;;5073257;28;20028;-61
2022/05/17 01:43:41;;;;;;;0.00;0.00;;;;;;;;;;5071504;28;20802;-61
2022/05/17 01:46:08;;;;;;;0.00;0.00;;;;;;;;;;5070459;28;20020;-61
2022/05/17 01:48:34;;;;;;;0.57;0.57;;;;;;;;;;5076564;28;20103;-61
2022/05/17 01:50:59;;;;;;;0.00;0.00;;;;;;;;;;5075853;28;20151;-61
2022/05/17 01:53:24;;;;;;;0.00;0.00;;;;;;;;;;5079103;28;20049;-61
2022/05/17 01:55:49;;;;;;;0.00;0.00;;;;;;;;;;5072159;28;20136;-61
2022/05/17 01:58:15;;;;;;;0.00;0.00;;;;;;;;;;5076520;28;20024;-62
2022/05/17 02:00:40;;;;;;;0.00;0.00;;;;;;;;;;5077666;28;20028;-60
2022/05/17 02:03:05;;;;;;;0.00;0.00;;;;;;;;;;5078028;28;20047;-61
2022/05/17 02:05:30;;;;;;;0.00;0.00;;;;;;;;;;5068351;28;20485;-60
2022/05/17 02:07:56;;;;;;;0.00;0.00;;;;;;;;;;5071359;28;20020;-61
2022/05/17 02:10:27;;;;;;;0.05;0.05;;;;;;;;;;5075844;28;20073;-59
2022/05/17 02:12:54;;;;;;;0.00;0.00;;;;;;;;;;5072786;28;20384;-61
2022/05/17 02:15:19;;;;;;;0.00;0.00;;;;;;;;;;5077869;28;20100;-62
2022/05/17 02:17:44;;;;;;;0.00;0.00;;;;;;;;;;5072342;28;20103;-61
2022/05/17 02:20:10;;;;;;;0.00;0.00;;;;;;;;;;5077299;28;20461;-61
2022/05/17 02:22:35;;;;;;;0.00;0.00;;;;;;;;;;5077694;28;20036;-60
2022/05/17 02:25:00;;;;;;;0.13;0.13;;;;;;;;;;5074747;28;20020;-60
2022/05/17 02:27:25;;;;;;;0.00;0.00;;;;;;;;;;5078084;28;20027;-60
2022/05/17 02:29:51;;;;;;;0.10;0.10;;;;;;;;;;5070636;28;20028;-60
2022/05/17 02:32:16;;;;;;;0.00;0.00;;;;;;;;;;5077225;28;20024;-60
2022/05/17 02:34:42;;;;;;;0.00;0.00;;;;;;;;;;5073051;28;20111;-60
2022/05/17 02:37:07;;;;;;;0.00;0.00;;;;;;;;;;5080328;28;20016;-61
2022/05/17 02:39:32;;;;;;;0.00;0.00;;;;;;;;;;5068378;28;20078;-60
2022/05/17 02:41:57;;;;;;;0.00;0.00;;;;;;;;;;5066203;28;20103;-61
2022/05/17 02:44:23;;;;;;;0.00;0.00;;;;;;;;;;5070091;28;20111;-61
2022/05/17 02:46:48;;;;;;;0.00;0.00;;;;;;;;;;5066616;28;20814;-61
2022/05/17 02:49:13;;;;;;;0.00;0.00;;;;;;;;;;5073034;28;20058;-61
2022/05/17 02:51:39;;;;;;;0.00;0.00;;;;;;;;;;5072791;28;20024;-60
2022/05/17 02:54:06;;;;;;;0.00;0.00;;;;;;;;;;5069912;28;20444;-61
2022/05/17 02:56:32;;;;;;;0.00;0.00;;;;;;;;;;5070468;28;20648;-61
2022/05/17 02:58:57;;;;;;;0.20;0.20;;;;;;;;;;5070648;28;20528;-61
2022/05/17 03:01:22;;;;;;;0.00;0.00;;;;;;;;;;5067365;28;20044;-61
2022/05/17 03:03:48;;;;;;;0.00;0.00;;;;;;;;;;5072326;28;20369;-60
2022/05/17 03:06:13;;;;;;;0.00;0.00;;;;;;;;;;5073963;28;20481;-60
2022/05/17 03:08:38;;;;;;;0.00;0.00;;;;;;;;;;5086638;28;20388;-60
2022/05/17 03:11:07;;;;;;;0.00;0.00;;;;;;;;;;5075007;28;20035;-62
2022/05/17 03:13:33;;;;;;;0.00;0.00;;;;;;;;;;5078010;28;20393;-60
2022/05/17 03:15:58;;;;;;;0.00;0.00;;;;;;;;;;5075294;28;20032;-60
2022/05/17 03:18:23;;;;;;;0.00;0.00;;;;;;;;;;5071444;28;20507;-62
2022/05/17 03:20:49;;;;;;;0.00;0.00;;;;;;;;;;5068263;28;20035;-61
2022/05/17 03:23:14;;;;;;;0.00;0.00;;;;;;;;;;5068764;28;20028;-61
2022/05/17 03:25:39;;;;;;;0.00;0.00;;;;;;;;;;5069184;28;20036;-61
2022/05/17 03:28:04;;;;;;;0.00;0.00;;;;;;;;;;5069912;28;20077;-62
2022/05/17 03:30:30;;;;;;;0.15;0.15;;;;;;;;;;5069012;28;20024;-60
2022/05/17 03:32:55;;;;;;;0.00;0.00;;;;;;;;;;5070601;28;20025;-61
2022/05/17 03:35:21;;;;;;;0.00;0.00;;;;;;;;;;5069586;28;20052;-61
2022/05/17 03:37:46;;;;;;;0.00;0.00;;;;;;;;;;5068431;28;20024;-61
2022/05/17 03:40:12;;;;;;;0.00;0.00;;;;;;;;;;5075673;28;20700;-61
2022/05/17 03:42:37;;;;;;;0.00;0.00;;;;;;;;;;5068393;28;20028;-62
2022/05/17 03:45:03;;;;;;;0.00;0.00;;;;;;;;;;5070074;28;20334;-62
2022/05/17 03:47:28;;;;;;;0.00;0.00;;;;;;;;;;5067820;28;20073;-62
2022/05/17 03:49:53;;;;;;;0.00;0.00;;;;;;;;;;5069157;28;20819;-62
2022/05/17 03:52:23;;;;;;;0.00;0.00;;;;;;;;;;5067906;28;20275;-60
2022/05/17 03:54:53;;;;;;;0.00;0.00;;;;;;;;;;5069159;28;20170;-61
2022/05/17 03:57:18;;;;;;;0.00;0.00;;;;;;;;;;5068659;28;20024;-61
2022/05/17 03:59:43;;;;;;;0.00;0.00;;;;;;;;;;5070751;28;20036;-63
2022/05/17 04:02:08;;;;;;;0.00;0.00;;;;;;;;;;5074321;28;20032;-60
2022/05/17 04:04:34;;;;;;;0.00;0.00;;;;;;;;;;5079904;28;20020;-60
2022/05/17 04:06:59;;;;;;;0.00;0.00;;;;;;;;;;5075898;28;20036;-59
2022/05/17 04:09:24;;;;;;;1.83;0.32;;;;;;;;;;5069663;28;20459;-62
2022/05/17 04:11:49;;;;;;;0.00;0.00;;;;;;;;;;5075141;28;20056;-61
2022/05/17 04:14:15;;;;;;;0.00;0.00;;;;;;;;;;5071906;28;20024;-61
2022/05/17 04:16:40;;;;;;;0.00;0.00;;;;;;;;;;5074927;28;20036;-61
2022/05/17 04:19:06;;;;;;;0.38;0.38;;;;;;;;;;5079603;28;20026;-61
2022/05/17 04:21:33;;;;;;;0.00;0.00;;;;;;;;;;5079367;28;20066;-61
2022/05/17 04:23:58;;;;;;;0.00;0.00;;;;;;;;;;5078432;28;20508;-62
2022/05/17 04:26:23;;;;;;;0.00;0.00;;;;;;;;;;5077235;28;20056;-61
2022/05/17 04:28:49;;;;;;;0.00;0.00;;;;;;;;;;5066747;28;20381;-61
2022/05/17 04:31:15;;;;;;;0.00;0.00;;;;;;;;;;5078131;28;20016;-61
2022/05/17 04:33:40;;;;;;;0.28;0.28;;;;;;;;;;5079294;28;20890;-60
2022/05/17 04:36:06;;;;;;;0.13;0.13;;;;;;;;;;5077857;28;20111;-61
2022/05/17 04:38:31;;;;;;;0.00;0.00;;;;;;;;;;5078843;28;20039;-61
2022/05/17 04:40:56;;;;;;;0.00;0.00;;;;;;;;;;5080062;28;20016;-61
2022/05/17 04:43:21;;;;;;;0.00;0.00;;;;;;;;;;5074362;28;20058;-62
2022/05/17 04:45:46;;;;;;;0.00;0.00;;;;;;;;;;5068428;28;20028;-61
2022/05/17 04:48:12;;;;;;;0.00;0.00;;;;;;;;;;5073282;28;20027;-61
2022/05/17 04:50:38;;;;;;;0.00;0.00;;;;;;;;;;5076713;28;20016;-63
2022/05/17 04:53:04;;;;;;;0.00;0.00;;;;;;;;;;5077663;28;20076;-62
2022/05/17 04:55:29;;;;;;;0.00;0.00;;;;;;;;;;5072066;28;20060;-62
2022/05/17 04:57:55;;;;;;;0.00;0.00;;;;;;;;;;5067193;28;20020;-63
2022/05/17 05:00:22;;;;;;;0.00;0.00;;;;;;;;;;5069383;28;20108;-61
2022/05/17 05:02:47;;;;;;;0.00;0.00;;;;;;;;;;5075884;28;20027;-63
2022/05/17 05:05:13;;;;;;;0.00;0.00;;;;;;;;;;5078186;28;20020;-62
2022/05/17 05:07:38;;;;;;;0.00;0.00;;;;;;;;;;5074065;28;20013;-62
2022/05/17 05:10:03;;;;;;;0.00;0.00;;;;;;;;;;5081673;28;20020;-62
2022/05/17 05:12:30;;;;;;;0.47;0.47;;;;;;;;;;5073979;28;20122;-63
2022/05/17 05:14:56;;;;;;;0.00;0.00;;;;;;;;;;5074011;28;20024;-64
2022/05/17 05:17:21;;;;;;;0.00;0.00;;;;;;;;;;5068705;28;20021;-63
2022/05/17 05:19:46;;;;;;;0.00;0.00;;;;;;;;;;5069639;28;20023;-63
2022/05/17 05:22:11;;;;;;;0.45;0.45;;;;;;;;;;5069089;28;20389;-61
2022/05/17 05:24:36;;;;;;;0.00;0.00;;;;;;;;;;5069238;28;20032;-62
2022/05/17 05:27:02;;;;;;;0.00;0.00;;;;;;;;;;5067241;28;20101;-60
2022/05/17 05:29:27;;;;;;;0.00;0.00;;;;;;;;;;5066312;28;20024;-61
2022/05/17 05:31:52;;;;;;;0.00;0.00;;;;;;;;;;5069860;28;20451;-62
2022/05/17 05:34:17;;;;;;;0.00;0.00;;;;;;;;;;5070601;28;20032;-62
2022/05/17 05:36:44;;;;;;;0.00;0.00;;;;;;;;;;5066020;28;20026;-62
2022/05/17 05:39:09;;;;;;;0.00;0.00;;;;;;;;;;5068683;28;20020;-58
2022/05/17 05:41:35;;;;;;;0.00;0.00;;;;;;;;;;5071843;28;20111;-59
2022/05/17 05:44:00;;;;;;;0.00;0.00;;;;;;;;;;5079076;28;20034;-60
2022/05/17 05:46:25;;;;;;;0.00;0.00;;;;;;;;;;5073373;28;20024;-58
2022/05/17 05:48:50;;;;;;;0.10;0.10;;;;;;;;;;5073775;28;20111;-58
2022/05/17 05:51:17;;;;;;;0.68;0.25;;;;;;;;;;5079972;28;20030;-59
2022/05/17 05:53:43;;;;;;;0.05;0.05;;;;;;;;;;5073652;28;20052;-58
2022/05/17 05:56:08;;;;;;;0.00;0.00;;;;;;;;;;5068835;28;20076;-58
2022/05/17 05:58:34;;;;;;;0.00;0.00;;;;;;;;;;5079188;28;20021;-57
2022/05/17 06:00:59;;;;;;;0.00;0.00;;;;;;;;;;5069611;28;20055;-59
2022/05/17 06:03:25;;;;;;;0.03;0.03;;;;;;;;;;5065923;28;20054;-60
2022/05/17 06:05:50;;;;;;;3.40;2.72;;;;;;;;;;5069977;28;20032;-58
2022/05/17 06:08:16;;;;;;;2.85;0.40;;;;;;;;;;5070747;28;20059;-58
2022/05/17 06:10:41;;;;;;;0.15;0.15;;;;;;;;;;5079969;28;20023;-59
2022/05/17 06:13:08;;;;;;;0.00;0.00;;;;;;;;;;5074111;28;20456;-56
2022/05/17 06:15:33;;;;;;;0.17;0.17;;;;;;;;;;5074595;28;20017;-57
2022/05/17 06:18:02;;;;;;;0.55;0.55;;;;;;;;;;5081784;28;20385;-58
2022/05/17 06:20:27;;;;;;;0.00;0.00;;;;;;;;;;5070661;28;20028;-58
2022/05/17 06:22:53;;;;;;;0.00;0.00;;;;;;;;;;5067944;28;20029;-59
2022/05/17 06:25:18;;;;;;;0.57;0.15;;;;;;;;;;5074693;28;20035;-57
2022/05/17 06:27:43;;;;;;;0.00;0.00;;;;;;;;;;5071597;28;20020;-57
2022/05/17 06:30:10;;;;;;;0.00;0.00;;;;;;;;;;5074369;28;20020;-56
2022/05/17 06:32:35;;;;;;;0.00;0.00;;;;;;;;;;5073580;28;20040;-57
2022/05/17 06:35:00;;;;;;;0.00;0.00;;;;;;;;;;5073879;28;20424;-58
2022/05/17 06:37:25;;;;;;;0.00;0.00;;;;;;;;;;5079668;28;20050;-58
2022/05/17 06:39:51;;;;;;;0.65;0.65;;;;;;;;;;5078607;28;20042;-58
2022/05/17 06:42:16;;;;;;;0.00;0.00;;;;;;;;;;5078820;28;20036;-58
2022/05/17 06:44:41;;;;;;;0.00;0.00;;;;;;;;;;5078171;28;20032;-58
2022/05/17 06:47:06;;;;;;;0.00;0.00;;;;;;;;;;5081064;28;20027;-57
2022/05/17 06:49:32;;;;;;;0.00;0.00;;;;;;;;;;5083742;28;20115;-58
2022/05/17 06:52:02;;;;;;;0.00;0.00;;;;;;;;;;5077468;28;20077;-58
2022/05/17 06:54:28;;;;;;;0.00;0.00;;;;;;;;;;5081207;28;20486;-57
2022/05/17 06:56:53;;;;;;;0.43;0.43;;;;;;;;;;5078379;28;20023;-58
2022/05/17 06:59:18;;;;;;;22.40;13.93;;;;;;;;;;5083936;28;20578;-57
2022/05/17 07:01:44;;;;;;;0.00;0.00;;;;;;;;;;5077609;28;20290;-59
2022/05/17 07:04:09;;;;;;;0.00;0.00;;;;;;;;;;5078885;28;20420;-57
2022/05/17 07:06:35;;;;;;;0.20;0.20;;;;;;;;;;5078258;28;20081;-58
2022/05/17 07:09:00;;;;;;;0.00;0.00;;;;;;;;;;5082512;28;20062;-58
2022/05/17 07:14:09;;;;;;;2.15;1.95;;;;;;;;;;5078381;28;20091;-58
2022/05/17 07:16:34;;;;;;;0.10;0.10;;;;;;;;;;5073738;28;20024;-60
2022/05/17 07:18:59;;;;;;;0.00;0.00;;;;;;;;;;5075107;28;20020;-58
2022/05/17 07:21:25;;;;;;;1.83;1.80;;;;;;;;;;5073869;28;20035;-58
2022/05/17 07:23:51;;;;;;;2.53;2.38;;;;;;;;;;5079910;28;20281;-58
2022/05/17 07:26:16;;;;;;;0.00;0.00;;;;;;;;;;5076503;28;20082;-58
2022/05/17 07:28:43;;;;;;;0.00;0.00;;;;;;;;;;5080121;28;20461;-58
2022/05/17 07:31:08;;;;;;;0.00;0.00;;;;;;;;;;5084360;28;20028;-58
2022/05/17 07:33:34;;;;;;;0.00;0.00;;;;;;;;;;5081615;28;20048;-57
2022/05/17 07:35:59;;;;;;;0.17;0.17;;;;;;;;;;5079842;28;20016;-58
2022/05/17 07:38:25;;;;;;;0.00;0.00;;;;;;;;;;5081101;28;20015;-57
2022/05/17 07:40:51;;;;;;;0.00;0.00;;;;;;;;;;5077562;28;20025;-58
2022/05/17 07:43:16;;;;;;;0.00;0.00;;;;;;;;;;5081954;28;20035;-57
2022/05/17 07:45:47;;;;;;;0.00;0.00;;;;;;;;;;5075919;28;20056;-57
2022/05/17 07:48:15;;;;;;;0.00;0.00;;;;;;;;;;5080483;28;20021;-57
2022/05/17 07:50:46;;;;;;;0.00;0.00;;;;;;;;;;5077310;28;20025;-57
2022/05/17 07:53:12;;;;;;;0.00;0.00;;;;;;;;;;5075422;28;20048;-57
2022/05/17 07:55:39;;;;;;;0.10;0.10;;;;;;;;;;5077696;28;20526;-58
2022/05/17 07:58:04;;;;;;;0.00;0.00;;;;;;;;;;5078087;28;20032;-57
2022/05/17 08:00:30;;;;;;;0.10;0.10;;;;;;;;;;5079106;28;20356;-57
2022/05/17 08:02:58;;;;;;;0.00;0.00;;;;;;;;;;5076712;28;20016;-57
2022/05/17 08:05:23;;;;;;;0.00;0.00;;;;;;;;;;5080850;28;20496;-56
2022/05/17 08:07:49;;;;;;;0.28;0.28;;;;;;;;;;5081350;28;20020;-57
2022/05/17 08:10:15;;;;;;;0.00;0.00;;;;;;;;;;5078943;28;20021;-58
2022/05/17 08:12:40;;;;;;;1.87;0.57;;;;;;;;;;5081921;28;20016;-58
2022/05/17 08:15:06;;;;;;;0.10;0.10;;;;;;;;;;5074181;28;21012;-57
2022/05/17 08:17:31;;;;;;;0.00;0.00;;;;;;;;;;5074622;28;20086;-58
2022/05/17 08:19:57;;;;;;;0.52;0.52;;;;;;;;;;5072365;28;20016;-58
2022/05/17 08:22:22;;;;;;;0.00;0.00;;;;;;;;;;5076182;28;20420;-56
2022/05/17 08:27:31;;;;;;;1.40;0.85;;;;;;;;;;5079006;28;20077;-58
2022/05/17 08:29:58;;;;;;;0.00;0.00;;;;;;;;;;5076998;28;20028;-59
2022/05/17 08:35:07;;;;;;;0.00;0.00;;;;;;;;;;5075796;28;20058;-58
2022/05/17 08:37:32;;;;;;;0.15;0.15;;;;;;;;;;5079336;28;20025;-58
2022/05/17 08:39:58;;;;;;;0.00;0.00;;;;;;;;;;5075583;28;20062;-57
2022/05/17 08:42:29;;;;;;;0.00;0.00;;;;;;;;;;5076297;28;20124;-58
2022/05/17 08:45:00;;;;;;;0.00;0.00;;;;;;;;;;5073689;28;20024;-57
2022/05/17 08:47:45;;;;;;;1.52;0.68;;;;;;;;;;5069797;28;20032;-58
2022/05/17 08:50:13;;;;;;;0.00;0.00;;;;;;;;;;5077083;28;20020;-57
2022/05/17 08:52:40;;;;;;;0.00;0.00;;;;;;;;;;5078568;28;20370;-57
2022/05/17 08:55:23;;;;;;;0.00;0.00;;;;;;;;;;5075724;28;20024;-58
2022/05/17 08:57:51;;;;;;;1.45;0.47;;;;;;;;;;5074142;28;20059;-59
2022/05/17 09:00:17;;;;;;;0.00;0.00;;;;;;;;;;5081228;28;20032;-58
2022/05/17 09:02:48;;;;;;;0.00;0.00;;;;;;;;;;5077850;28;20078;-59
2022/05/17 09:05:13;;;;;;;0.00;0.00;;;;;;;;;;5077722;28;20465;-58
2022/05/17 09:08:00;;;;;;;0.00;0.00;;;;;;;;;;5075989;28;20074;-58
2022/05/17 09:10:28;;;;;;;5.43;4.95;;;;;;;;;;5075091;28;20024;-59
2022/05/17 09:13:11;;;;;;;0.00;0.00;;;;;;;;;;5074910;28;20027;-59
2022/05/17 09:15:36;;;;;;;0.00;0.00;;;;;;;;;;5078394;28;20031;-59
2022/05/17 09:18:05;;;;;;;0.00;0.00;;;;;;;;;;5074461;28;20481;-56
2022/05/17 09:20:35;;;;;;;0.00;0.00;;;;;;;;;;5073183;28;20740;-58
2022/05/17 09:23:01;;;;;;;0.00;0.00;;;;;;;;;;5076395;28;20028;-57
2022/05/17 09:25:43;;;;;;;0.00;0.00;;;;;;;;;;5079547;28;20025;-58
2022/05/17 09:28:08;;;;;;;0.00;0.00;;;;;;;;;;5074247;28;20025;-58
2022/05/17 09:30:37;;;;;;;0.00;0.00;;;;;;;;;;5078609;28;20146;-58
2022/05/17 09:33:19;;;;;;;0.00;0.00;;;;;;;;;;5075446;28;20031;-57
2022/05/17 09:35:55;;;;;;;0.00;0.00;;;;;;;;;;5079767;28;20465;-55
2022/05/17 09:38:20;;;;;;;0.55;0.35;;;;;;;;;;5079101;28;20022;-59
2022/05/17 09:40:48;;;;;;;0.77;0.77;;;;;;;;;;5076450;28;20099;-58
2022/05/17 09:43:15;;;;;;;0.00;0.00;;;;;;;;;;5080247;28;20050;-58
2022/05/17 09:45:45;;;;;;;0.00;0.00;;;;;;;;;;5075394;28;20034;-58
2022/05/17 09:48:11;;;;;;;0.00;0.00;;;;;;;;;;5075934;28;20024;-58
2022/05/17 09:53:23;;;;;;;0.00;0.00;;;;;;;;;;5077751;28;20063;-59
2022/05/17 09:55:49;;;;;;;0.00;0.00;;;;;;;;;;5074213;28;20024;-59
2022/05/17 09:58:33;;;;;;;0.00;0.00;;;;;;;;;;5079123;28;20021;-58
2022/05/17 10:01:00;;;;;;;0.40;0.40;;;;;;;;;;5076870;28;20032;-58
2022/05/17 10:03:28;;;;;;;1.13;1.13;;;;;;;;;;5079976;28;20040;-58
2022/05/17 10:05:57;;;;;;;0.00;0.00;;;;;;;;;;5074714;28;20025;-59
2022/05/17 10:08:31;;;;;;;0.00;0.00;;;;;;;;;;5078672;28;20084;-58
2022/05/17 10:11:02;;;;;;;0.00;0.00;;;;;;;;;;5086547;28;20473;-58
2022/05/17 10:13:32;;;;;;;0.00;0.00;;;;;;;;;;5080538;28;20062;-58
2022/05/17 10:16:02;;;;;;;0.00;0.00;;;;;;;;;;5082481;28;20107;-59
2022/05/17 10:18:48;;;;;;;0.00;0.00;;;;;;;;;;5082149;28;20107;-60
2022/05/17 10:21:28;;;;;;;0.70;0.70;;;;;;;;;;5077490;28;20028;-58
2022/05/17 10:23:54;;;;;;;2.95;2.80;;;;;;;;;;5086451;28;20036;-58
2022/05/17 10:26:21;;;;;;;0.10;0.10;;;;;;;;;;5083151;28;20361;-58
2022/05/17 10:29:05;;;;;;;0.10;0.10;;;;;;;;;;5077700;28;20021;-60
2022/05/17 10:31:33;;;;;;;0.00;0.00;;;;;;;;;;5087149;28;20118;-58
2022/05/17 10:34:04;;;;;;;0.00;0.00;;;;;;;;;;5081885;28;20465;-58
2022/05/17 10:36:44;;;;;;;0.17;0.17;;;;;;;;;;5084138;28;20077;-58
2022/05/17 10:39:29;;;;;;;0.00;0.00;;;;;;;;;;5083221;28;20583;-59
2022/05/17 10:41:55;;;;;;;0.00;0.00;;;;;;;;;;5074174;28;20537;-59
2022/05/17 10:44:22;;;;;;;0.00;0.00;;;;;;;;;;5077423;28;20108;-59
2022/05/17 10:46:52;;;;;;;0.10;0.10;;;;;;;;;;5078017;28;21292;-59
2022/05/17 10:49:23;;;;;;;0.00;0.00;;;;;;;;;;5085588;28;20062;-60
2022/05/17 10:51:48;;;;;;;2.63;1.45;;;;;;;;;;5088255;28;20108;-59
2022/05/17 10:54:17;;;;;;;0.75;0.75;;;;;;;;;;5083316;28;20127;-58
2022/05/17 10:57:05;;;;;;;0.00;0.00;;;;;;;;;;5080808;28;20365;-57
2022/05/17 10:59:49;;;;;;;0.28;0.10;;;;;;;;;;5074536;28;20469;-58
2022/05/17 11:02:23;;;;;;;0.00;0.00;;;;;;;;;;5079095;28;20050;-58
2022/05/17 11:05:07;;;;;;;0.00;0.00;;;;;;;;;;5078339;28;20514;-59
2022/05/17 11:07:45;;;;;;;0.40;0.40;;;;;;;;;;5083269;28;20108;-58
2022/05/17 11:10:19;;;;;;;0.38;0.38;;;;;;;;;;5081306;28;20020;-59
2022/05/17 11:12:48;;;;;;;0.28;0.28;;;;;;;;;;5080122;28;20485;-57
2022/05/17 11:15:17;;;;;;;0.00;0.00;;;;;;;;;;5079972;28;20020;-58
2022/05/17 11:17:50;;;;;;;1.20;0.98;;;;;;;;;;5079732;28;20345;-58
2022/05/17 11:20:18;;;;;;;0.43;0.43;;;;;;;;;;5081561;28;20060;-58
2022/05/17 11:22:48;;;;;;;0.00;0.00;;;;;;;;;;5081222;28;20077;-58
2022/05/17 11:25:36;;;;;;;0.00;0.00;;;;;;;;;;5080946;28;20675;-59
2022/05/17 11:28:04;;;;;;;0.10;0.10;;;;;;;;;;5081043;28;20084;-58
2022/05/17 11:30:38;;;;;;;4.35;1.00;;;;;;;;;;5080803;28;20028;-58
2022/05/17 11:33:09;;;;;;;0.52;0.52;;;;;;;;;;5077687;28;20038;-58
2022/05/17 11:35:36;;;;;;;0.00;0.00;;;;;;;;;;5080180;28;20074;-59
2022/05/17 11:38:04;;;;;;;1.55;0.80;;;;;;;;;;5083368;28;20069;-58
2022/05/17 11:40:49;;;;;;;0.00;0.00;;;;;;;;;;5080417;28;20479;-59
2022/05/17 11:46:30;;;;;;;0.00;0.00;;;;;;;;;;5089030;28;20032;-60
2022/05/17 11:48:55;;;;;;;1.75;1.75;;;;;;;;;;5083545;28;20032;-59
2022/05/17 11:51:28;;;;;;;0.07;0.07;;;;;;;;;;5078736;28;20081;-59
2022/05/17 11:53:53;;;;;;;0.00;0.00;;;;;;;;;;5080379;28;20779;-58
2022/05/17 11:56:24;;;;;;;1.35;1.02;;;;;;;;;;5078591;28;20162;-59
2022/05/17 11:58:51;;;;;;;1.83;0.55;;;;;;;;;;5075478;28;20112;-58
2022/05/17 12:01:31;;;;;;;0.00;0.00;;;;;;;;;;5079464;28;20027;-58
2022/05/17 12:03:57;;;;;;;0.00;0.00;;;;;;;;;;5080168;28;20362;-59
2022/05/17 12:06:29;;;;;;;0.05;0.05;;;;;;;;;;5083741;28;20092;-60
2022/05/17 12:08:54;;;;;;;0.00;0.00;;;;;;;;;;5076792;28;20115;-59
2022/05/17 12:11:42;;;;;;;0.00;0.00;;;;;;;;;;5080170;28;20104;-59
2022/05/17 12:14:21;;;;;;;0.00;0.00;;;;;;;;;;5078196;28;20017;-58
2022/05/17 12:16:54;;;;;;;5.07;0.47;;;;;;;;;;5077788;28;20467;-57
2022/05/17 12:19:38;;;;;;;0.13;0.13;;;;;;;;;;5077817;28;20021;-59
2022/05/17 12:22:04;;;;;;;0.08;0.08;;;;;;;;;;5074599;28;20021;-59
2022/05/17 12:24:39;;;;;;;1.27;0.65;;;;;;;;;;5078025;28;20022;-58
2022/05/17 12:27:16;;;;;;;0.00;0.00;;;;;;;;;;5081703;28;21527;-59
2022/05/17 12:32:34;;;;;;;0.10;0.10;;;;;;;;;;5079039;28;20098;-59
2022/05/17 12:34:59;;;;;;;1.27;0.32;;;;;;;;;;5076385;28;20353;-59
2022/05/17 12:37:26;;;;;;;0.00;0.00;;;;;;;;;;5077749;28;20035;-60
2022/05/17 12:45:23;;;;;;;0.15;0.15;;;;;;;;;;5079141;28;20455;-58
2022/05/17 12:47:50;;;;;;;0.00;0.00;;;;;;;;;;5077460;28;20457;-58
2022/05/17 12:50:17;;;;;;;0.00;0.00;;;;;;;;;;5074444;28;20052;-58
2022/05/17 12:52:43;;;;;;;0.00;0.00;;;;;;;;;;5078587;28;20059;-59
2022/05/17 12:55:09;;;;;;;0.00;0.00;;;;;;;;;;5074761;28;20127;-59
2022/05/17 12:57:38;;;;;;;0.00;0.00;;;;;;;;;;5081572;28;20114;-59
2022/05/17 13:00:26;;;;;;;0.00;0.00;;;;;;;;;;5077436;28;20469;-59
2022/05/17 13:02:55;;;;;;;0.00;0.00;;;;;;;;;;5070248;28;20371;-59
2022/05/17 13:05:26;;;;;;;0.00;0.00;;;;;;;;;;5079284;28;20027;-59
2022/05/17 13:07:58;;;;;;;0.00;0.00;;;;;;;;;;5077845;28;20035;-58
2022/05/17 13:10:23;;;;;;;0.00;0.00;;;;;;;;;;5079662;28;20441;-58
2022/05/17 13:12:48;;;;;;;0.43;0.30;;;;;;;;;;5079772;28;20024;-58
2022/05/17 13:15:13;;;;;;;0.00;0.00;;;;;;;;;;5080208;28;20024;-59
2022/05/17 13:17:41;;;;;;;0.00;0.00;;;;;;;;;;5078302;28;20281;-58
2022/05/17 13:20:11;;;;;;;0.00;0.00;;;;;;;;;;5074544;28;20403;-58
2022/05/17 13:22:41;;;;;;;0.00;0.00;;;;;;;;;;5076594;28;20024;-59
2022/05/17 13:25:06;;;;;;;1.65;0.63;;;;;;;;;;5073937;28;20103;-59
2022/05/17 13:27:36;;;;;;;0.00;0.00;;;;;;;;;;5076155;28;20107;-59
2022/05/17 13:30:06;;;;;;;0.32;0.32;;;;;;;;;;5079484;28;20020;-59
2022/05/17 13:32:36;;;;;;;0.00;0.00;;;;;;;;;;5075302;28;20032;-59
2022/05/17 13:35:10;;;;;;;0.00;0.00;;;;;;;;;;5077748;28;20039;-59
2022/05/17 13:37:51;;;;;;;0.00;0.00;;;;;;;;;;5080221;28;20025;-59
2022/05/17 13:40:33;;;;;;;0.40;0.40;;;;;;;;;;5075510;28;20090;-59
2022/05/17 13:42:58;;;;;;;0.00;0.00;;;;;;;;;;5078855;28;20377;-59
2022/05/17 13:45:36;;;;;;;0.00;0.00;;;;;;;;;;5074558;28;20021;-59
2022/05/17 13:48:05;;;;;;;0.00;0.00;;;;;;;;;;5076659;28;20016;-60
2022/05/17 13:50:31;;;;;;;0.32;0.32;;;;;;;;;;5080607;28;20027;-59
2022/05/17 13:52:59;;;;;;;0.00;0.00;;;;;;;;;;5073136;28;20044;-60
2022/05/17 13:55:31;;;;;;;0.00;0.00;;;;;;;;;;5073844;28;20044;-60
2022/05/17 13:57:58;;;;;;;0.85;0.30;;;;;;;;;;5073451;28;20036;-58
2022/05/17 14:00:25;;;;;;;1.25;0.52;;;;;;;;;;5073305;28;20040;-60
2022/05/17 14:02:51;;;;;;;0.00;0.00;;;;;;;;;;5077313;28;20337;-59
2022/05/17 14:05:19;;;;;;;0.00;0.00;;;;;;;;;;5078822;28;20044;-60
2022/05/17 14:07:56;;;;;;;0.00;0.00;;;;;;;;;;5082816;28;20139;-59
2022/05/17 14:13:10;;;;;;;0.00;0.00;;;;;;;;;;5072479;28;20031;-59
2022/05/17 14:15:37;;;;;;;0.00;0.00;;;;;;;;;;5072619;28;20470;-58
2022/05/17 14:18:02;;;;;;;0.03;0.03;;;;;;;;;;5074160;28;20016;-58
2022/05/17 14:20:28;;;;;;;0.38;0.38;;;;;;;;;;5071601;28;20525;-58
2022/05/17 14:22:58;;;;;;;0.22;0.20;;;;;;;;;;5075816;28;20092;-59
2022/05/17 14:25:26;;;;;;;0.20;0.20;;;;;;;;;;5073506;28;20031;-58
2022/05/17 14:27:51;;;;;;;0.00;0.00;;;;;;;;;;5077941;28;20574;-60
2022/05/17 14:30:17;;;;;;;0.00;0.00;;;;;;;;;;5073605;28;20039;-58
2022/05/17 14:32:42;;;;;;;0.00;0.00;;;;;;;;;;5073708;28;20074;-58
2022/05/17 14:35:08;;;;;;;0.38;0.38;;;;;;;;;;5075073;28;20024;-57
2022/05/17 14:37:33;;;;;;;0.00;0.00;;;;;;;;;;5077232;28;20350;-57
2022/05/17 14:39:58;;;;;;;0.00;0.00;;;;;;;;;;5073338;28;20111;-57
2022/05/17 14:42:23;;;;;;;0.00;0.00;;;;;;;;;;5081658;28;20263;-56
2022/05/17 14:44:48;;;;;;;0.00;0.00;;;;;;;;;;5079813;28;20582;-58
2022/05/17 14:47:19;;;;;;;0.00;0.00;;;;;;;;;;5074231;28;20098;-58
2022/05/17 14:49:51;;;;;;;0.20;0.20;;;;;;;;;;5080983;28;20025;-58
2022/05/17 14:52:16;;;;;;;0.00;0.00;;;;;;;;;;5081842;28;20036;-58
2022/05/17 14:54:42;;;;;;;0.00;0.00;;;;;;;;;;5076544;28;20377;-58
2022/05/17 14:57:08;;;;;;;0.00;0.00;;;;;;;;;;5074526;28;20024;-59
2022/05/17 14:59:33;;;;;;;0.00;0.00;;;;;;;;;;5075422;28;20062;-58
2022/05/17 15:01:58;;;;;;;0.05;0.05;;;;;;;;;;5075882;28;20458;-57
2022/05/17 15:04:25;;;;;;;0.00;0.00;;;;;;;;;;5078412;28;20020;-58
2022/05/17 15:06:53;;;;;;;0.43;0.43;;;;;;;;;;5086567;28;20026;-56
2022/05/17 15:09:21;;;;;;;0.20;0.20;;;;;;;;;;5085424;28;20392;-58
2022/05/17 15:11:46;;;;;;;0.00;0.00;;;;;;;;;;5076493;28;20786;-57
2022/05/17 15:14:12;;;;;;;0.38;0.38;;;;;;;;;;5078091;28;20057;-58